Time;durP1;ratioP1;P1;durP2;ratioP2;P2;SDS_P1;SDS_P2;PMS_P1;PMS_P2;Temp;Humidity;BMP_temperature;BMP_pressure;BME280_temperature;BME280_humidity;BME280_pressure;Samples;Min_cycle;Max_cycle;Signal;HPM_P1;HPM_P2
2023/05/15 00:02:00;;;;;;;1.13;1.13;;;12.80;99.90;;;;;;5052814;28;20311;-62
2023/05/15 00:04:27;;;;;;;1.20;1.20;;;12.80;99.90;;;;;;5053173;28;20207;-62
2023/05/15 00:06:54;;;;;;;1.10;1.10;;;12.80;99.90;;;;;;5052998;28;20564;-62
2023/05/15 00:09:22;;;;;;;1.10;1.10;;;12.80;99.90;;;;;;5052521;28;20204;-62
2023/05/15 00:11:50;;;;;;;0.90;0.90;;;12.80;99.90;;;;;;5052678;28;20203;-63
2023/05/15 00:14:17;;;;;;;1.00;1.00;;;12.80;99.90;;;;;;5052686;28;20219;-63
2023/05/15 00:16:44;;;;;;;1.10;1.10;;;12.80;99.90;;;;;;5068460;28;20647;-63
2023/05/15 00:19:10;;;;;;;1.03;1.03;;;12.80;99.90;;;;;;5071786;28;20776;-63
2023/05/15 00:21:37;;;;;;;1.27;1.17;;;12.70;99.90;;;;;;5072420;28;20742;-63
2023/05/15 00:24:04;;;;;;;1.30;1.20;;;12.70;99.90;;;;;;5072457;28;20249;-63
2023/05/15 00:26:33;;;;;;;1.00;1.00;;;12.70;99.90;;;;;;5072552;28;20205;-63
2023/05/15 00:28:59;;;;;;;1.10;1.10;;;12.70;99.90;;;;;;5072098;28;20199;-63
2023/05/15 00:31:26;;;;;;;1.20;1.20;;;12.70;99.90;;;;;;5071897;28;20294;-63
2023/05/15 00:33:53;;;;;;;1.53;1.43;;;12.60;99.90;;;;;;5072106;28;20861;-63
2023/05/15 00:36:23;;;;;;;1.20;1.20;;;12.60;99.90;;;;;;5072223;28;20207;-63
2023/05/15 00:38:50;;;;;;;1.30;1.27;;;12.50;99.90;;;;;;5072294;28;20277;-63
2023/05/15 00:41:17;;;;;;;1.20;1.20;;;12.50;99.90;;;;;;5071614;28;20207;-64
2023/05/15 00:43:49;;;;;;;1.00;1.00;;;12.50;99.90;;;;;;5071754;28;20235;-64
2023/05/15 00:46:17;;;;;;;1.00;1.00;;;12.40;99.90;;;;;;5072517;28;20188;-62
2023/05/15 00:48:44;;;;;;;1.00;1.00;;;12.30;99.90;;;;;;5072014;28;20681;-62
2023/05/15 00:51:11;;;;;;;1.10;1.10;;;12.20;99.90;;;;;;5071464;28;20682;-62
2023/05/15 00:53:39;;;;;;;1.00;1.00;;;12.20;99.90;;;;;;5072306;28;20223;-65
2023/05/15 00:56:07;;;;;;;1.10;1.10;;;12.20;99.90;;;;;;5072423;28;20268;-63
2023/05/15 00:58:36;;;;;;;1.10;0.98;;;12.30;99.90;;;;;;5073800;28;20207;-62
2023/05/15 01:01:04;;;;;;;1.15;1.15;;;12.20;99.90;;;;;;5073158;28;20566;-61
2023/05/15 01:03:32;;;;;;;1.35;1.35;;;12.20;99.90;;;;;;5054272;28;20234;-62
2023/05/15 01:05:58;;;;;;;1.20;1.20;;;12.20;99.90;;;;;;5052038;28;20207;-62
2023/05/15 01:08:29;;;;;;;1.20;1.20;;;12.20;99.90;;;;;;5053734;28;20212;-63
2023/05/15 01:10:58;;;;;;;1.13;1.13;;;12.20;99.90;;;;;;5052012;28;20212;-62
2023/05/15 01:13:25;;;;;;;1.10;1.10;;;12.20;99.90;;;;;;5052558;28;20254;-63
2023/05/15 01:15:51;;;;;;;1.33;1.25;;;12.20;99.90;;;;;;5052510;28;20204;-62
2023/05/15 01:18:20;;;;;;;1.10;1.10;;;12.10;99.90;;;;;;5051796;28;20210;-62
2023/05/15 01:21:06;;;;;;;0.98;0.98;;;12.10;99.90;;;;;;5051154;28;20270;-63
2023/05/15 01:23:43;;;;;;;0.90;0.90;;;12.20;99.90;;;;;;5052028;28;20231;-62
2023/05/15 01:26:54;;;;;;;1.60;1.50;;;12.20;99.90;;;;;;5052503;28;20192;-63
2023/05/15 01:29:27;;;;;;;1.00;1.00;;;12.20;99.90;;;;;;5051481;28;20211;-63
2023/05/15 01:31:57;;;;;;;1.00;1.00;;;12.20;99.90;;;;;;5052083;28;20184;-64
2023/05/15 01:34:32;;;;;;;1.00;1.00;;;12.20;99.90;;;;;;5059223;28;20203;-64
2023/05/15 01:37:02;;;;;;;1.10;1.10;;;12.20;99.90;;;;;;5071897;28;20619;-63
2023/05/15 01:39:32;;;;;;;1.10;1.10;;;12.20;99.90;;;;;;5071944;28;20216;-63
2023/05/15 01:42:03;;;;;;;1.23;1.23;;;12.10;99.90;;;;;;5071464;28;20229;-62
2023/05/15 01:44:36;;;;;;;1.17;1.17;;;12.00;99.90;;;;;;5072053;28;20674;-63
2023/05/15 01:47:08;;;;;;;1.00;1.00;;;12.00;99.90;;;;;;5072361;28;20266;-63
2023/05/15 01:49:36;;;;;;;1.10;1.10;;;11.90;99.90;;;;;;5071563;28;20209;-63
2023/05/15 01:52:08;;;;;;;1.10;1.10;;;11.90;99.90;;;;;;5072329;28;20230;-62
2023/05/15 01:54:36;;;;;;;1.23;1.20;;;11.90;99.90;;;;;;5072040;28;20198;-62
2023/05/15 01:57:04;;;;;;;1.80;1.70;;;11.80;99.90;;;;;;5075468;28;20215;-62
2023/05/15 01:59:34;;;;;;;1.58;1.23;;;11.80;99.90;;;;;;5064215;28;20223;-62
2023/05/15 02:02:03;;;;;;;1.20;1.20;;;11.70;99.90;;;;;;5055851;28;20232;-62
2023/05/15 02:04:30;;;;;;;1.10;1.10;;;11.70;99.90;;;;;;5054722;28;20272;-62
2023/05/15 02:06:58;;;;;;;1.40;1.20;;;11.70;99.90;;;;;;5055823;28;20291;-63
2023/05/15 02:09:25;;;;;;;1.30;1.30;;;11.60;99.90;;;;;;5055274;28;20214;-64
2023/05/15 02:11:53;;;;;;;1.10;1.10;;;11.60;99.90;;;;;;5055671;28;20583;-62
2023/05/15 02:14:21;;;;;;;1.10;1.10;;;11.50;99.90;;;;;;5055942;28;20212;-63
2023/05/15 02:16:50;;;;;;;1.30;1.30;;;11.60;99.90;;;;;;5055422;28;20290;-62
2023/05/15 02:19:16;;;;;;;1.92;1.30;;;11.60;99.90;;;;;;5054983;28;20224;-62
2023/05/15 02:21:43;;;;;;;1.00;1.00;;;11.80;99.90;;;;;;5055835;28;20251;-63
2023/05/15 02:24:10;;;;;;;1.33;1.30;;;11.80;99.90;;;;;;5056406;28;20204;-62
2023/05/15 02:26:47;;;;;;;1.33;1.13;;;11.80;99.90;;;;;;5055469;28;20200;-62
2023/05/15 02:29:20;;;;;;;1.00;1.00;;;11.80;99.90;;;;;;5055221;28;20188;-64
2023/05/15 02:31:58;;;;;;;1.10;1.10;;;11.80;99.90;;;;;;5054943;28;20200;-64
2023/05/15 02:34:32;;;;;;;1.23;1.23;;;11.80;99.90;;;;;;5059208;28;20191;-62
2023/05/15 02:37:01;;;;;;;1.40;1.40;;;11.80;99.90;;;;;;5074581;28;20216;-62
2023/05/15 02:39:28;;;;;;;1.50;1.40;;;11.90;99.90;;;;;;5072213;28;20223;-63
2023/05/15 02:41:57;;;;;;;1.63;1.52;;;11.90;99.90;;;;;;5075153;28;20218;-62
2023/05/15 02:44:26;;;;;;;1.20;1.20;;;11.90;99.90;;;;;;5075694;28;20204;-63
2023/05/15 02:46:55;;;;;;;1.10;1.10;;;11.90;99.90;;;;;;5075522;28;20199;-64
2023/05/15 02:49:22;;;;;;;1.20;1.20;;;11.90;99.90;;;;;;5074995;28;20203;-66
2023/05/15 02:51:49;;;;;;;1.20;1.20;;;11.90;99.90;;;;;;5075003;28;20276;-63
2023/05/15 02:54:16;;;;;;;1.25;1.25;;;11.80;99.90;;;;;;5075327;28;20242;-64
2023/05/15 02:56:43;;;;;;;1.20;1.20;;;11.80;99.90;;;;;;5075484;28;20837;-62
2023/05/15 02:59:10;;;;;;;1.10;1.10;;;11.80;99.90;;;;;;5074397;28;20214;-62
2023/05/15 03:01:37;;;;;;;1.20;1.20;;;11.80;99.90;;;;;;5078882;28;20682;-64
2023/05/15 03:04:05;;;;;;;1.20;1.20;;;11.80;99.90;;;;;;5074634;28;20213;-62
2023/05/15 03:06:32;;;;;;;1.30;1.30;;;11.90;99.90;;;;;;5074692;28;20211;-64
2023/05/15 03:08:59;;;;;;;1.10;1.10;;;11.80;99.90;;;;;;5065125;28;20208;-62
2023/05/15 03:11:26;;;;;;;1.20;1.20;;;11.90;99.90;;;;;;5054652;28;20210;-63
2023/05/15 03:13:52;;;;;;;1.38;1.30;;;11.90;99.90;;;;;;5054712;28;20319;-64
2023/05/15 03:16:19;;;;;;;1.00;1.00;;;11.80;99.90;;;;;;5057349;28;20215;-64
2023/05/15 03:18:46;;;;;;;1.30;1.20;;;11.80;99.90;;;;;;5057561;28;20303;-62
2023/05/15 03:21:14;;;;;;;1.10;1.10;;;11.80;99.90;;;;;;5054966;28;20711;-62
2023/05/15 03:23:41;;;;;;;1.70;1.10;;;11.80;99.90;;;;;;5055350;28;20319;-62
2023/05/15 03:26:08;;;;;;;1.05;1.05;;;11.80;99.90;;;;;;5054596;28;20204;-63
2023/05/15 03:28:34;;;;;;;1.20;1.20;;;11.70;99.90;;;;;;5054376;28;20204;-63
2023/05/15 03:31:03;;;;;;;1.20;1.20;;;11.70;99.90;;;;;;5054018;28;20569;-62
2023/05/15 03:33:30;;;;;;;1.90;1.10;;;11.60;99.90;;;;;;5054396;28;20239;-62
2023/05/15 03:35:57;;;;;;;1.10;1.10;;;11.60;99.90;;;;;;5054446;28;20212;-65
2023/05/15 03:38:25;;;;;;;1.42;1.42;;;11.60;99.90;;;;;;5054264;28;20212;-63
2023/05/15 03:40:52;;;;;;;1.20;1.20;;;11.50;99.90;;;;;;5053486;28;20227;-63
2023/05/15 03:43:18;;;;;;;1.23;1.20;;;11.40;99.90;;;;;;5053894;28;20223;-63
2023/05/15 03:45:45;;;;;;;1.20;1.20;;;11.40;99.90;;;;;;5054131;28;20200;-64
2023/05/15 03:48:12;;;;;;;1.07;1.07;;;11.40;99.90;;;;;;5054055;28;20212;-64
2023/05/15 03:50:39;;;;;;;1.10;1.10;;;11.40;99.90;;;;;;5053596;28;20601;-63
2023/05/15 03:53:06;;;;;;;1.10;1.10;;;11.40;99.90;;;;;;5053675;28;20226;-63
2023/05/15 03:55:35;;;;;;;1.23;1.13;;;11.40;99.90;;;;;;5053654;28;20233;-62
2023/05/15 03:58:02;;;;;;;1.30;1.20;;;11.50;99.90;;;;;;5054016;28;20572;-61
2023/05/15 04:00:29;;;;;;;1.10;1.10;;;11.40;99.90;;;;;;5053054;28;20232;-66
2023/05/15 04:02:56;;;;;;;1.43;1.33;;;11.40;99.90;;;;;;5053596;28;20224;-64
2023/05/15 04:05:23;;;;;;;2.67;1.30;;;11.40;99.90;;;;;;5053551;28;20215;-65
2023/05/15 04:07:49;;;;;;;1.30;1.30;;;11.50;99.90;;;;;;5053763;28;20210;-65
2023/05/15 04:10:16;;;;;;;1.00;1.00;;;11.50;99.90;;;;;;5052487;28;20196;-63
2023/05/15 04:12:44;;;;;;;1.20;1.20;;;11.50;99.90;;;;;;5068021;28;20795;-65
2023/05/15 04:15:16;;;;;;;1.20;1.20;;;11.50;99.90;;;;;;5073023;28;20203;-65
2023/05/15 04:17:43;;;;;;;1.10;1.10;;;11.60;99.90;;;;;;5073237;28;20674;-64
2023/05/15 04:20:11;;;;;;;1.00;1.00;;;11.70;99.90;;;;;;5072479;28;20227;-64
2023/05/15 04:22:38;;;;;;;1.10;1.10;;;11.70;99.90;;;;;;5073045;28;20238;-63
2023/05/15 04:25:06;;;;;;;1.20;1.20;;;11.80;99.90;;;;;;5072973;28;20199;-64
2023/05/15 04:27:33;;;;;;;1.20;1.20;;;11.80;99.90;;;;;;5072868;28;20206;-63
2023/05/15 04:30:02;;;;;;;1.50;1.40;;;11.70;99.90;;;;;;5072873;28;20298;-64
2023/05/15 04:32:29;;;;;;;1.30;1.20;;;11.70;99.90;;;;;;5072741;28;20284;-63
2023/05/15 04:34:56;;;;;;;1.20;1.20;;;11.70;99.90;;;;;;5072615;28;20207;-64
2023/05/15 04:37:23;;;;;;;1.60;1.50;;;11.60;99.90;;;;;;5067600;28;20203;-61
2023/05/15 04:39:50;;;;;;;1.00;1.00;;;11.70;99.90;;;;;;5071170;28;20225;-62
2023/05/15 04:42:17;;;;;;;1.30;1.20;;;11.70;99.90;;;;;;5070198;28;20600;-64
2023/05/15 04:44:44;;;;;;;1.20;1.20;;;11.70;99.90;;;;;;5072561;28;20295;-60
2023/05/15 04:47:12;;;;;;;1.63;1.52;;;11.70;99.90;;;;;;5072380;28;20214;-61
2023/05/15 04:49:39;;;;;;;1.33;1.25;;;11.80;99.90;;;;;;5071274;28;20205;-63
2023/05/15 04:52:06;;;;;;;1.20;1.20;;;11.90;99.90;;;;;;5065982;28;20232;-61
2023/05/15 04:54:33;;;;;;;1.52;1.45;;;11.90;99.90;;;;;;5072050;28;20203;-61
2023/05/15 04:57:00;;;;;;;1.10;1.10;;;11.90;99.90;;;;;;5072412;28;20211;-61
2023/05/15 04:59:27;;;;;;;1.20;1.20;;;11.90;99.90;;;;;;5071166;28;20207;-62
2023/05/15 05:01:54;;;;;;;1.33;1.23;;;12.00;99.90;;;;;;5071732;28;20219;-63
2023/05/15 05:04:22;;;;;;;1.30;1.20;;;12.10;99.90;;;;;;5071009;28;20203;-61
2023/05/15 05:06:49;;;;;;;1.10;1.10;;;12.10;99.90;;;;;;5071807;28;20206;-63
2023/05/15 05:09:16;;;;;;;1.13;1.13;;;12.10;99.90;;;;;;5070810;28;20211;-62
2023/05/15 05:11:43;;;;;;;1.10;1.10;;;12.00;99.90;;;;;;5071377;28;20580;-62
2023/05/15 05:14:10;;;;;;;1.30;1.20;;;12.10;99.90;;;;;;5070913;28;20214;-63
2023/05/15 05:16:37;;;;;;;1.80;1.20;;;12.20;99.90;;;;;;5072800;28;20206;-62
2023/05/15 05:19:04;;;;;;;1.10;1.10;;;12.30;99.90;;;;;;5079430;28;20205;-62
2023/05/15 05:21:32;;;;;;;1.20;1.20;;;12.40;99.90;;;;;;5076972;28;20223;-62
2023/05/15 05:23:59;;;;;;;1.10;1.10;;;12.50;99.90;;;;;;5078633;28;20233;-61
2023/05/15 05:26:27;;;;;;;1.30;1.30;;;12.50;99.90;;;;;;5076529;28;20285;-60
2023/05/15 05:28:53;;;;;;;1.27;1.17;;;12.60;99.90;;;;;;5074148;28;20203;-62
2023/05/15 05:31:21;;;;;;;1.73;1.30;;;12.60;99.90;;;;;;5071223;28;20199;-62
2023/05/15 05:33:48;;;;;;;1.08;1.08;;;12.60;99.90;;;;;;5074376;28;20231;-61
2023/05/15 05:36:15;;;;;;;1.08;1.08;;;12.60;99.90;;;;;;5088799;28;20673;-62
2023/05/15 05:38:43;;;;;;;1.10;1.10;;;12.70;99.90;;;;;;5073778;28;20230;-62
2023/05/15 05:41:10;;;;;;;1.00;1.00;;;12.70;99.90;;;;;;5070176;28;20221;-61
2023/05/15 05:43:37;;;;;;;1.58;1.20;;;12.70;99.90;;;;;;5070107;28;20260;-61
2023/05/15 05:46:04;;;;;;;1.30;1.20;;;12.70;99.90;;;;;;5072282;28;20208;-61
2023/05/15 05:48:30;;;;;;;0.90;0.90;;;12.70;99.90;;;;;;5051633;28;20206;-62
2023/05/15 05:50:58;;;;;;;1.40;1.30;;;12.70;99.90;;;;;;5062450;28;20556;-63
2023/05/15 05:53:24;;;;;;;1.15;1.15;;;12.80;99.90;;;;;;5064247;28;20223;-61
2023/05/15 05:55:53;;;;;;;1.20;1.20;;;12.90;99.90;;;;;;5062990;28;20207;-62
2023/05/15 05:58:20;;;;;;;1.20;1.20;;;12.90;99.90;;;;;;5067814;28;20196;-63
2023/05/15 06:00:47;;;;;;;1.10;1.10;;;12.90;99.90;;;;;;5057971;28;20224;-62
2023/05/15 06:03:14;;;;;;;1.00;1.00;;;12.90;99.90;;;;;;5064732;28;20226;-61
2023/05/15 06:05:41;;;;;;;1.08;1.08;;;12.90;99.90;;;;;;5066389;28;20331;-63
2023/05/15 06:08:08;;;;;;;1.30;1.30;;;12.90;99.90;;;;;;5070195;28;20204;-62
2023/05/15 06:10:35;;;;;;;2.08;1.52;;;13.00;99.90;;;;;;5070242;28;20286;-61
2023/05/15 06:13:03;;;;;;;1.35;1.33;;;13.20;99.90;;;;;;5070493;28;20238;-63
2023/05/15 06:15:30;;;;;;;1.00;1.00;;;13.20;99.90;;;;;;5071055;28;20648;-61
2023/05/15 06:17:56;;;;;;;1.20;1.20;;;13.20;99.90;;;;;;5054036;28;20419;-62
2023/05/15 06:20:23;;;;;;;1.10;1.10;;;13.30;99.90;;;;;;5049962;28;20230;-61
2023/05/15 06:22:50;;;;;;;1.40;1.30;;;13.50;99.90;;;;;;5050481;28;20230;-61
2023/05/15 06:25:17;;;;;;;1.05;1.05;;;13.70;99.90;;;;;;5051035;28;20208;-61
2023/05/15 06:27:44;;;;;;;0.90;0.90;;;14.00;99.90;;;;;;5051349;28;20258;-61
2023/05/15 06:30:13;;;;;;;0.93;0.93;;;14.30;99.90;;;;;;5050557;28;20233;-61
2023/05/15 06:32:41;;;;;;;1.55;1.20;;;14.60;99.90;;;;;;5052714;28;20303;-65
2023/05/15 06:35:09;;;;;;;1.08;1.00;;;14.80;99.90;;;;;;5055506;28;20882;-63
2023/05/15 06:37:36;;;;;;;1.50;1.08;;;14.80;99.90;;;;;;5053624;28;20223;-63
2023/05/15 06:40:04;;;;;;;1.00;1.00;;;14.90;99.90;;;;;;5050891;28;20307;-62
2023/05/15 06:42:31;;;;;;;1.20;1.20;;;15.10;99.90;;;;;;5052917;28;20577;-62
2023/05/15 06:44:58;;;;;;;1.95;1.02;;;15.30;99.90;;;;;;5054750;28;20242;-62
2023/05/15 06:47:26;;;;;;;1.00;1.00;;;15.50;99.90;;;;;;5054558;28;20217;-63
2023/05/15 06:49:54;;;;;;;1.08;1.08;;;15.60;99.90;;;;;;5053518;28;20302;-62
2023/05/15 06:52:21;;;;;;;0.90;0.90;;;15.60;99.90;;;;;;5054256;28;20227;-62
2023/05/15 06:54:47;;;;;;;1.00;1.00;;;15.60;99.90;;;;;;5054397;28;20615;-63
2023/05/15 06:57:14;;;;;;;0.98;0.98;;;15.60;99.90;;;;;;5054137;28;20218;-62
2023/05/15 06:59:41;;;;;;;1.10;1.10;;;15.70;99.90;;;;;;5053387;28;20675;-62
2023/05/15 07:02:08;;;;;;;0.93;0.93;;;15.80;99.90;;;;;;5053649;28;20228;-61
2023/05/15 07:04:36;;;;;;;1.00;1.00;;;16.00;99.90;;;;;;5053878;28;20211;-62
2023/05/15 07:07:03;;;;;;;1.05;1.05;;;16.20;99.90;;;;;;5054211;28;20204;-62
2023/05/15 07:09:29;;;;;;;1.05;1.05;;;16.30;99.90;;;;;;5053347;28;20211;-62
2023/05/15 07:11:56;;;;;;;0.90;0.90;;;16.30;99.90;;;;;;5053366;28;20200;-61
2023/05/15 07:14:23;;;;;;;1.00;1.00;;;16.30;99.90;;;;;;5054022;28;20219;-61
2023/05/15 07:16:50;;;;;;;1.02;1.00;;;16.30;99.90;;;;;;5053921;28;20742;-61
2023/05/15 07:19:19;;;;;;;0.70;0.70;;;16.20;99.90;;;;;;5052822;28;20211;-64
2023/05/15 07:21:47;;;;;;;0.80;0.80;;;16.30;99.90;;;;;;5053415;28;20259;-62
2023/05/15 07:24:14;;;;;;;0.90;0.90;;;16.50;99.90;;;;;;5053636;28;20254;-62
2023/05/15 07:26:41;;;;;;;0.70;0.70;;;16.50;99.90;;;;;;5053777;28;20210;-62
2023/05/15 07:29:08;;;;;;;1.00;1.00;;;16.50;99.90;;;;;;5053031;28;20569;-64
2023/05/15 07:31:35;;;;;;;0.90;0.90;;;16.60;99.90;;;;;;5054210;28;20200;-62
2023/05/15 07:34:01;;;;;;;0.80;0.80;;;16.80;99.90;;;;;;5053682;28;20309;-61
2023/05/15 07:36:28;;;;;;;0.90;0.90;;;16.70;99.90;;;;;;5053543;28;20295;-61
2023/05/15 07:38:56;;;;;;;0.80;0.80;;;17.20;99.90;;;;;;5059495;28;20203;-61
2023/05/15 07:41:23;;;;;;;0.90;0.90;;;17.60;99.90;;;;;;5058053;28;20220;-61
2023/05/15 07:43:50;;;;;;;0.90;0.90;;;17.70;99.90;;;;;;5053277;28;20228;-63
2023/05/15 07:46:17;;;;;;;0.90;0.90;;;17.80;99.90;;;;;;5052959;28;20218;-63
2023/05/15 07:48:43;;;;;;;1.00;1.00;;;17.60;99.90;;;;;;5053307;28;20218;-63
2023/05/15 07:51:10;;;;;;;1.02;1.02;;;17.50;99.90;;;;;;5052570;28;20208;-61
2023/05/15 07:53:37;;;;;;;0.90;0.90;;;17.30;99.90;;;;;;5052111;28;20230;-62
2023/05/15 07:56:05;;;;;;;0.80;0.80;;;17.20;99.90;;;;;;5053174;28;20211;-61
2023/05/15 07:58:36;;;;;;;0.90;0.90;;;17.10;99.90;;;;;;5054499;28;20211;-63
2023/05/15 08:01:03;;;;;;;0.85;0.85;;;17.10;99.90;;;;;;5052345;28;20231;-62
2023/05/15 08:03:30;;;;;;;0.90;0.90;;;17.20;99.90;;;;;;5053075;28;20593;-62
2023/05/15 08:05:57;;;;;;;0.82;0.82;;;17.30;99.90;;;;;;5053739;28;20208;-62
2023/05/15 08:08:23;;;;;;;0.93;0.93;;;17.50;99.90;;;;;;5053294;28;20204;-62
2023/05/15 08:10:50;;;;;;;1.17;1.10;;;17.50;99.90;;;;;;5053486;28;20222;-61
2023/05/15 08:13:18;;;;;;;1.00;1.00;;;17.60;99.90;;;;;;5052898;28;20236;-64
2023/05/15 08:15:45;;;;;;;0.90;0.90;;;17.50;99.90;;;;;;5056383;28;20577;-62
2023/05/15 08:18:12;;;;;;;0.90;0.90;;;17.40;99.90;;;;;;5052964;28;20203;-62
2023/05/15 08:20:39;;;;;;;0.77;0.77;;;17.30;99.90;;;;;;5051739;28;20199;-61
2023/05/15 08:23:06;;;;;;;0.90;0.90;;;17.30;99.90;;;;;;5052575;28;20596;-63
2023/05/15 08:25:33;;;;;;;0.70;0.70;;;17.20;99.90;;;;;;5052719;28;20204;-63
2023/05/15 08:28:00;;;;;;;0.90;0.90;;;17.20;99.90;;;;;;5052606;28;20303;-64
2023/05/15 08:30:28;;;;;;;1.00;1.00;;;17.20;99.90;;;;;;5051942;28;20211;-63
2023/05/15 08:32:54;;;;;;;0.90;0.90;;;17.30;99.90;;;;;;5052869;28;20219;-62
2023/05/15 08:35:21;;;;;;;0.80;0.80;;;17.30;99.90;;;;;;5053235;28;20208;-61
2023/05/15 08:37:48;;;;;;;0.90;0.90;;;17.30;99.90;;;;;;5053446;28;20212;-61
2023/05/15 08:40:15;;;;;;;0.93;0.93;;;17.50;99.90;;;;;;5051935;28;20208;-64
2023/05/15 08:42:45;;;;;;;0.82;0.80;;;17.60;99.90;;;;;;5052938;28;20231;-63
2023/05/15 08:45:13;;;;;;;1.00;1.00;;;17.90;99.90;;;;;;5052024;28;20884;-63
2023/05/15 08:47:43;;;;;;;0.90;0.90;;;18.00;99.90;;;;;;5052656;28;20258;-64
2023/05/15 08:50:12;;;;;;;0.90;0.90;;;17.80;99.90;;;;;;5052350;28;20208;-61
2023/05/15 08:52:41;;;;;;;1.02;1.02;;;17.60;99.90;;;;;;5052555;28;20220;-63
2023/05/15 08:55:09;;;;;;;0.85;0.85;;;17.60;99.90;;;;;;5053468;28;20238;-63
2023/05/15 08:57:36;;;;;;;0.70;0.70;;;17.60;99.90;;;;;;5053688;28;20207;-62
2023/05/15 09:00:06;;;;;;;0.88;0.88;;;17.50;99.90;;;;;;5052127;28;20214;-63
2023/05/15 09:02:33;;;;;;;0.93;0.93;;;17.50;99.90;;;;;;5051052;28;20327;-63
2023/05/15 09:05:02;;;;;;;1.05;1.05;;;17.70;99.90;;;;;;5051337;28;20208;-62
2023/05/15 09:07:30;;;;;;;1.10;1.10;;;17.90;99.90;;;;;;5051773;28;20231;-63
2023/05/15 09:09:57;;;;;;;0.90;0.90;;;18.20;99.90;;;;;;5050840;28;20207;-62
2023/05/15 09:12:25;;;;;;;0.90;0.90;;;18.50;99.90;;;;;;5050867;28;20707;-62
2023/05/15 09:15:07;;;;;;;1.00;1.00;;;18.60;99.90;;;;;;5051354;28;20196;-62
2023/05/15 09:17:34;;;;;;;1.13;1.13;;;18.80;99.90;;;;;;5051530;28;20554;-63
2023/05/15 09:20:04;;;;;;;1.05;1.05;;;18.80;99.90;;;;;;5050400;28;20214;-62
2023/05/15 09:22:34;;;;;;;1.10;1.10;;;19.00;99.90;;;;;;5051431;28;20255;-62
2023/05/15 09:25:02;;;;;;;1.08;1.08;;;19.30;99.90;;;;;;5051579;28;20204;-63
2023/05/15 09:27:29;;;;;;;1.00;1.00;;;19.40;99.90;;;;;;5051239;28;20212;-62
2023/05/15 09:29:58;;;;;;;1.00;1.00;;;19.60;99.90;;;;;;5050460;28;20208;-63
2023/05/15 09:32:27;;;;;;;1.20;1.20;;;19.50;99.90;;;;;;5051334;28;20219;-63
2023/05/15 09:34:54;;;;;;;1.40;1.40;;;19.20;99.90;;;;;;5051979;28;20644;-62
2023/05/15 09:37:33;;;;;;;1.10;1.10;;;18.90;99.90;;;;;;5051938;28;20303;-62
2023/05/15 09:40:10;;;;;;;1.13;1.02;;;18.90;99.90;;;;;;5050192;28;20243;-62
2023/05/15 09:42:37;;;;;;;1.30;1.20;;;19.00;99.90;;;;;;5050721;28;20235;-62
2023/05/15 09:45:05;;;;;;;2.35;1.13;;;19.00;99.90;;;;;;5051100;28;20212;-62
2023/05/15 09:47:32;;;;;;;1.00;1.00;;;19.20;99.90;;;;;;5051342;28;20219;-63
2023/05/15 09:49:58;;;;;;;0.90;0.90;;;19.50;99.90;;;;;;5050236;28;20208;-62
2023/05/15 09:52:27;;;;;;;1.00;1.00;;;19.90;99.90;;;;;;5050819;28;20729;-62
2023/05/15 09:54:56;;;;;;;0.90;0.90;;;20.10;99.90;;;;;;5051028;28;20557;-63
2023/05/15 09:57:23;;;;;;;1.00;1.00;;;20.40;99.90;;;;;;5050786;28;20218;-62
2023/05/15 09:59:49;;;;;;;0.90;0.90;;;20.80;99.90;;;;;;5050436;28;20690;-62
2023/05/15 10:02:24;;;;;;;0.90;0.90;;;20.90;99.90;;;;;;5050999;28;20234;-62
2023/05/15 10:04:56;;;;;;;1.10;1.10;;;20.70;99.90;;;;;;5050965;28;20207;-63
2023/05/15 10:07:30;;;;;;;1.00;1.00;;;20.70;99.90;;;;;;5051271;28;20565;-63
2023/05/15 10:09:58;;;;;;;1.10;1.10;;;21.00;99.90;;;;;;5050177;28;20207;-63
2023/05/15 10:12:25;;;;;;;0.90;0.90;;;21.10;99.90;;;;;;5050693;28;20323;-63
2023/05/15 10:14:55;;;;;;;0.90;0.90;;;21.20;99.90;;;;;;5050840;28;20986;-63
2023/05/15 10:17:22;;;;;;;1.20;1.20;;;21.60;99.90;;;;;;5052718;28;20210;-63
2023/05/15 10:19:50;;;;;;;0.95;0.95;;;21.60;99.90;;;;;;5054131;28;20214;-63
2023/05/15 10:22:22;;;;;;;1.20;1.20;;;21.60;99.90;;;;;;5054592;28;20285;-63
2023/05/15 10:24:59;;;;;;;1.30;1.20;;;21.70;99.90;;;;;;5054859;28;20216;-62
2023/05/15 10:27:28;;;;;;;1.10;1.10;;;21.70;99.90;;;;;;5054899;28;20217;-62
2023/05/15 10:29:57;;;;;;;1.08;1.08;;;21.70;99.90;;;;;;5053865;28;20208;-63
2023/05/15 10:32:25;;;;;;;1.10;1.10;;;21.90;99.90;;;;;;5054719;28;20224;-63
2023/05/15 10:34:54;;;;;;;0.88;0.88;;;21.90;99.90;;;;;;5054690;28;20212;-63
2023/05/15 10:37:21;;;;;;;0.98;0.98;;;21.50;99.90;;;;;;5054267;28;20200;-61
2023/05/15 10:39:48;;;;;;;1.00;1.00;;;21.10;99.90;;;;;;5053790;28;20208;-64
2023/05/15 10:42:16;;;;;;;1.20;1.20;;;20.50;99.90;;;;;;5054177;28;20715;-64
2023/05/15 10:44:44;;;;;;;1.00;1.00;;;20.30;99.90;;;;;;5054470;28;20788;-64
2023/05/15 10:47:11;;;;;;;1.45;1.30;;;20.40;99.90;;;;;;5054113;28;20200;-63
2023/05/15 10:49:39;;;;;;;1.20;1.20;;;20.80;99.90;;;;;;5053045;28;21033;-63
2023/05/15 10:52:06;;;;;;;1.13;1.13;;;21.10;99.90;;;;;;5054215;28;20220;-63
2023/05/15 10:54:33;;;;;;;1.10;1.10;;;21.00;99.90;;;;;;5054092;28;20583;-64
2023/05/15 10:57:00;;;;;;;1.00;1.00;;;21.20;99.90;;;;;;5054470;28;20200;-64
2023/05/15 10:59:34;;;;;;;1.20;1.20;;;21.40;99.90;;;;;;5053442;28;20208;-63
2023/05/15 11:02:20;;;;;;;1.10;1.08;;;21.70;99.90;;;;;;5053332;28;20236;-63
2023/05/15 11:04:47;;;;;;;1.00;1.00;;;21.90;99.90;;;;;;5054091;28;20710;-62
2023/05/15 11:07:15;;;;;;;0.90;0.90;;;22.00;99.90;;;;;;5054528;28;20214;-63
2023/05/15 11:09:42;;;;;;;0.98;0.98;;;22.00;99.90;;;;;;5053290;28;20295;-62
2023/05/15 11:12:10;;;;;;;0.90;0.90;;;22.10;99.90;;;;;;5054034;28;20250;-62
2023/05/15 11:14:39;;;;;;;0.80;0.80;;;22.10;99.90;;;;;;5054124;28;20212;-64
2023/05/15 11:17:08;;;;;;;1.00;1.00;;;22.10;99.90;;;;;;5053909;28;20303;-64
2023/05/15 11:19:39;;;;;;;1.08;1.08;;;22.10;99.90;;;;;;5052677;28;20211;-63
2023/05/15 11:22:20;;;;;;;1.10;1.10;;;22.20;99.90;;;;;;5053635;28;20708;-64
2023/05/15 11:24:52;;;;;;;1.33;1.30;;;22.20;99.90;;;;;;5053587;28;20584;-64
2023/05/15 11:27:20;;;;;;;1.10;1.10;;;22.10;99.90;;;;;;5053735;28;20290;-64
2023/05/15 11:30:07;;;;;;;0.90;0.90;;;22.20;99.90;;;;;;5051639;28;20200;-64
2023/05/15 11:32:47;;;;;;;1.13;1.13;;;22.70;99.90;;;;;;5053434;28;20216;-62
2023/05/15 11:35:21;;;;;;;1.20;1.08;;;22.90;99.90;;;;;;5053226;28;20214;-64
2023/05/15 11:37:50;;;;;;;1.05;1.05;;;22.60;99.90;;;;;;5053565;28;20683;-63
2023/05/15 11:40:21;;;;;;;1.30;1.20;;;22.30;99.90;;;;;;5054065;28;20287;-63
2023/05/15 11:43:06;;;;;;;1.40;1.10;;;22.20;99.90;;;;;;5055934;28;20746;-63
2023/05/15 11:45:35;;;;;;;1.00;1.00;;;22.30;99.90;;;;;;5053624;28;20212;-63
2023/05/15 11:48:04;;;;;;;1.70;1.10;;;22.60;99.90;;;;;;5053123;28;20206;-64
2023/05/15 11:50:35;;;;;;;1.10;1.10;;;22.90;99.90;;;;;;5051739;28;20204;-63
2023/05/15 11:53:06;;;;;;;1.35;1.35;;;22.90;99.90;;;;;;5053126;28;20220;-63
2023/05/15 11:55:34;;;;;;;1.10;1.10;;;22.60;99.90;;;;;;5053183;28;20214;-62
2023/05/15 11:58:02;;;;;;;1.10;1.10;;;22.30;99.90;;;;;;5053075;28;20204;-63
2023/05/15 12:00:30;;;;;;;1.00;1.00;;;22.50;99.90;;;;;;5052197;28;20208;-66
2023/05/15 12:02:57;;;;;;;1.80;1.70;;;22.60;99.90;;;;;;5053966;28;20232;-62
2023/05/15 12:05:24;;;;;;;2.00;1.77;;;22.10;99.90;;;;;;5053454;28;20243;-63
2023/05/15 12:07:52;;;;;;;5.45;1.33;;;21.30;99.90;;;;;;5054291;28;20556;-62
2023/05/15 12:10:19;;;;;;;1.35;1.10;;;20.30;99.90;;;;;;5053147;28;20218;-62
2023/05/15 12:12:46;;;;;;;0.80;0.80;;;19.80;99.90;;;;;;5052834;28;20323;-64
2023/05/15 12:15:15;;;;;;;0.80;0.80;;;19.50;99.90;;;;;;5054297;28;20203;-62
2023/05/15 12:17:43;;;;;;;0.70;0.70;;;19.40;99.90;;;;;;5056501;28;20216;-64
2023/05/15 12:20:12;;;;;;;0.60;0.60;;;19.30;99.90;;;;;;5062153;28;20203;-64
2023/05/15 12:22:40;;;;;;;0.70;0.70;;;18.80;99.90;;;;;;5069216;28;20883;-63
2023/05/15 12:25:10;;;;;;;0.60;0.60;;;18.60;99.90;;;;;;5054156;28;20204;-63
2023/05/15 12:27:39;;;;;;;0.60;0.60;;;18.50;99.90;;;;;;5051174;28;20208;-63
2023/05/15 12:30:07;;;;;;;0.70;0.70;;;18.70;99.90;;;;;;5049948;28;20212;-63
2023/05/15 12:32:36;;;;;;;0.80;0.80;;;18.70;99.90;;;;;;5049859;28;20303;-62
2023/05/15 12:35:04;;;;;;;0.63;0.63;;;18.50;99.90;;;;;;5050027;28;20204;-63
2023/05/15 12:37:32;;;;;;;0.70;0.70;;;18.50;99.90;;;;;;5056433;28;20226;-62
2023/05/15 12:40:01;;;;;;;0.80;0.80;;;18.50;99.90;;;;;;5072750;28;20218;-63
2023/05/15 12:42:29;;;;;;;0.80;0.60;;;18.50;99.90;;;;;;5070212;28;20640;-62
2023/05/15 12:44:56;;;;;;;0.63;0.63;;;18.60;99.90;;;;;;5065059;28;20208;-63
2023/05/15 12:47:24;;;;;;;0.60;0.60;;;18.70;99.90;;;;;;5071806;28;20199;-62
2023/05/15 12:49:55;;;;;;;0.50;0.50;;;18.80;99.90;;;;;;5073048;28;20288;-63
2023/05/15 12:52:21;;;;;;;0.60;0.60;;;18.90;99.90;;;;;;5072448;28;20227;-62
2023/05/15 12:54:49;;;;;;;0.70;0.70;;;19.00;99.90;;;;;;5074001;28;20207;-63